Time,TemperatureF,DewpointF,PressureIn,WindDirection,WindDirectionDegrees,WindSpeedMPH,WindSpeedGustMPH,Humidity,HourlyPrecipIn,Conditions,Clouds,dailyrainin,SoftwareType,DateUTC
2013-07-13 00:00:00,64.3,63.1,29.88,NE,44,0.0,1.0,96,0.00,CLR,,0.00,WeatherDisplay:10.37,2013-07-13 04:00:00,
2013-07-13 01:00:00,63.1,62.3,29.89,NE,44,0.0,0.0,97,0.00,CLR,,0.00,WeatherDisplay:10.37,2013-07-13 05:00:00,
2013-07-13 02:00:00,63.5,62.9,29.91,NE,44,0.0,2.0,98,0.00,SCT,,0.00,WeatherDisplay:10.37,2013-07-13 06:00:00,
2013-07-13 03:00:00,62.8,62.2,29.89,NE,44,0.0,2.0,98,0.00,BKN,,0.00,WeatherDisplay:10.37,2013-07-13 07:00:00,
2013-07-13 04:00:00,63.7,63.2,29.89,NE,44,0.0,1.0,98,0.00,OVC,,0.00,WeatherDisplay:10.37,2013-07-13 08:00:00,
2013-07-13 05:00:00,64.3,63.7,29.89,NE,44,0.0,1.0,98,0.00,OVC,,0.00,WeatherDisplay:10.37,2013-07-13 09:00:00,
2013-07-13 06:00:00,64.7,64.1,29.90,NE,44,0.0,2.0,98,0.00,OVC,,0.00,WeatherDisplay:10.37,2013-07-13 10:00:00,
2013-07-13 07:00:00,64.4,63.8,29.92,East,95,0.0,1.0,98,0.00,OVC,,0.00,WeatherDisplay:10.37,2013-07-13 11:00:00,
2013-07-13 08:00:00,66.0,65.1,29.93,East,87,0.0,1.0,97,0.00,BKN,,0.00,WeatherDisplay:10.37,2013-07-13 12:00:00,
2013-07-13 09:00:00,71.7,68.0,29.94,SW,214,0.0,2.0,88,0.00,BKN,,0.00,WeatherDisplay:10.37,2013-07-13 13:00:00,
2013-07-13 10:00:00,73.9,68.4,29.94,SW,225,0.0,3.0,83,0.00,BKN,,0.00,WeatherDisplay:10.37,2013-07-13 14:00:00,
2013-07-13 11:00:00,74.9,67.2,29.95,SSW,196,0.0,5.0,77,0.00,BKN,,0.00,WeatherDisplay:10.37,2013-07-13 15:00:00,
2013-07-13 12:00:00,76.0,68.7,29.96,SSW,205,0.0,3.0,78,0.00,OVC,,0.00,WeatherDisplay:10.37,2013-07-13 16:00:00,
2013-07-13 13:00:00,76.4,67.5,29.97,NNW,338,3.0,8.0,74,0.00,OVC,,0.00,WeatherDisplay:10.37,2013-07-13 17:00:00,
2013-07-13 14:00:00,76.3,66.6,29.96,WNW,301,1.0,6.0,72,0.00,OVC,,0.00,WeatherDisplay:10.37,2013-07-13 18:00:00,
2013-07-13 15:00:00,79.5,69.3,29.94,SW,230,1.0,5.0,71,0.00,OVC,,0.00,WeatherDisplay:10.37,2013-07-13 19:00:00,
2013-07-13 16:00:00,78.8,67.7,29.94,WNW,297,0.0,7.0,69,0.00,BKN,,0.00,WeatherDisplay:10.37,2013-07-13 20:00:00,
2013-07-13 17:00:00,78.6,67.5,29.94,North,350,2.0,7.0,69,0.00,BKN,,0.00,WeatherDisplay:10.37,2013-07-13 21:00:00,
2013-07-13 18:00:00,78.3,68.9,29.94,NW,316,0.0,6.0,73,0.00,SCT,,0.00,WeatherDisplay:10.37,2013-07-13 22:00:00,
2013-07-13 19:00:00,74.6,70.5,29.95,SSW,210,0.0,4.0,87,0.00,BKN,,0.00,WeatherDisplay:10.37,2013-07-13 23:00:00,
2013-07-13 20:00:00,72.9,70.4,29.96,SW,216,0.0,1.0,92,0.00,SCT,,0.00,WeatherDisplay:10.37,2013-07-14 00:00:00,
2013-07-13 21:00:00,70.7,68.6,29.98,NNE,20,0.0,3.0,93,0.00,CLR,,0.00,WeatherDisplay:10.37,2013-07-14 01:00:00,
2013-07-13 22:00:00,69.0,67.8,29.99,NW,312,0.0,2.0,96,0.00,SCT,,0.00,WeatherDisplay:10.37,2013-07-14 02:00:00,
2013-07-13 23:00:00,68.1,66.9,30.00,West,268,0.0,1.0,96,0.00,BKN,,0.00,WeatherDisplay:10.37,2013-07-14 03:00:00,